東京国際空港の過去48時間の天気

東京国際空港 (Tokyo/Intl)

現在時刻: 4/24 21:22 JST (4/24 12:22 UTC) 以下の時間は現地時間です。

過去48時間のMETAR気象情報
時間 風向 風速(m/s) 視程 気温(℃) 湿度(%) 気圧(hPa) 天気現象
24 21:00 6 10km以上 19 88 1010
24 20:30 南南西 7 10km以上 19 88 1010 弱いしゅう雨
24 20:00 南南西 7 10km以上 19 83 1010 弱いしゅう雨
24 19:30 5 10km以上 20 73 1010 弱いしゅう雨
24 19:00 南西 8 10km以上 20 68 1010
24 18:30 南西 8 10km以上 20 68 1010
24 18:00 南南西 7 10km以上 20 73 1010
24 17:47 南南西 8 10km以上 21 69 1010 弱いしゅう雨
24 17:30 南南西 9 10km以上 20 73 1010 弱いしゅう雨
24 17:17 南南西 9 10km以上 21 69 1009 弱いしゅう雨
24 17:00 南南西 9 10km以上 20 73 1009 弱いしゅう雨
24 16:30 南南西 8 10km以上 20 73 1010 弱い雨
24 16:00 9 10km以上 20 78 1010 弱い雨
24 15:30 南南西 8 10km以上 21 69 1010 弱い雨
24 15:00 南南西 8 10km以上 21 69 1011 周辺でしゅう雨
24 14:30 南南西 8 10km以上 21 69 1011 弱いしゅう雨
24 14:00 8 10km以上 21 73 1012 周辺でしゅう雨
24 13:30 9 10km以上 21 69 1012
24 13:00 7 10km以上 22 69 1012
24 12:30 7 10km以上 21 73 1013
24 12:00 9 10km以上 21 73 1013
24 11:47 8 10km以上 21 73 1013
24 11:30 8 10km以上 22 69 1014
24 11:16 8 10km以上 22 69 1014
24 11:00 7 10km以上 21 73 1014
24 10:30 6 10km以上 21 73 1015
24 10:00 4 10km以上 20 78 1015
24 09:30 5 10km以上 20 78 1016
24 09:00 5 8,000m 20 78 1016
24 08:30 東南東 4 7,000m 18 88 1016
24 08:00 2 6,000m 18 88 1017
24 07:30 東南東 4 7,000m 17 94 1017
24 07:00 東南東 3 7,000m 16 100 1017
24 06:30 東南東 3 7,000m 16 100 1017
24 06:00 東南東 4 7,000m 16 94 1017 もや
24 05:30 東南東 2 8,000m 16 94 1017
24 05:00 南東 3 8,000m 16 94 1017 弱い雨
24 04:30 南東 3 10km以上 16 94 1017
24 04:00 南東 3 10km以上 15 100 1017
24 03:30 南東 3 10km以上 15 94 1018
24 03:00 南東 4 10km以上 16 94 1018
24 02:30 南東 3 10km以上 16 94 1018
24 02:00 南東 4 10km以上 15 94 1018
24 01:30 東南東 4 10km以上 15 94 1019
24 01:15 東南東 3 10km以上 15 94 1019
24 01:00 東南東 4 9,000m 15 94 1019
24 00:30 東南東 4 9,000m 16 88 1019
24 00:22 東南東 5 9,000m 16 88 1020
24 00:00 4 9,000m 16 88 1020
23 23:30 4 9,000m 16 88 1020
23 23:00 5 9,000m 15 94 1020
23 22:30 6 10km以上 15 94 1020
23 21:30 7 10km以上 16 88 1021
23 21:00 6 10km以上 16 88 1021 弱い雨
23 20:30 6 10km以上 15 94 1021 弱い雨
23 20:00 7 10km以上 16 88 1021 弱い雨
23 19:30 7 10km以上 16 88 1021 弱い雨
23 19:00 7 10km以上 16 88 1020 弱い雨
23 18:30 7 10km以上 16 88 1020 弱い雨
23 18:00 7 9,000m 16 88 1020 弱い雨
23 17:30 7 10km以上 16 88 1020 弱い雨
23 17:00 7 10km以上 16 88 1020 弱い雨
23 16:30 7 10km以上 17 83 1020
23 16:00 5 10km以上 17 77 1020
23 15:30 東南東 5 10km以上 17 83 1020
23 15:00 5 10km以上 17 83 1020
23 14:30 5 10km以上 17 83 1020
23 14:00 5 10km以上 17 83 1020
23 13:30 5 10km以上 17 77 1020
23 13:00 6 10km以上 17 77 1020
23 12:30 6 10km以上 17 77 1021
23 12:00 東北東 6 10km以上 16 82 1021
23 11:30 東北東 7 9,000m 17 77 1021
23 11:00 東北東 7 8,000m 16 88 1021
23 10:30 東北東 7 8,000m 17 83 1021
23 10:00 北東 7 8,000m 17 83 1022
23 09:30 東北東 7 7,000m 17 83 1022
23 09:00 東北東 6 7,000m 17 83 1021
23 08:30 北東 6 7,000m 17 83 1021
23 08:00 東北東 7 7,000m 17 88 1021
23 07:30 北東 6 7,000m 16 94 1021
23 07:00 北東 7 8,000m 16 94 1020
23 06:30 北東 7 8,000m 16 88 1020
23 06:00 北東 7 7,000m 16 94 1020
23 05:30 北東 7 8,000m 16 88 1020
23 05:18 東北東 7 8,000m 16 88 1019
23 05:00 北東 8 8,000m 16 88 1019
23 04:30 東北東 8 8,000m 16 94 1019
23 04:00 東北東 8 6,000m 16 94 1018
23 03:40 東北東 8 6,000m 16 94 1018
23 03:23 8 5,000m 16 100 1018 もや
23 03:00 8 3,500m 16 100 1018 もや
23 02:30 8 4,500m 16 100 1018 もや
23 02:21 東北東 8 5,000m 17 94 1018 もや
23 02:00 6 10km以上 18 83 1017
23 01:30 南東 5 10km以上 17 94 1017
23 01:00 南東 4 10km以上 17 88 1017
23 00:30 南東 3 10km以上 17 88 1017
23 00:00 3 10km以上 18 73 1017
22 23:30 南南西 4 10km以上 19 68 1017
22 23:00 南南西 4 10km以上 19 68 1017
22 22:30 南南西 5 10km以上 19 68 1017
22 22:00 4 10km以上 19 73 1016
22 21:30 6 10km以上 19 73 1016
RJTT 241200Z 19011KT 9999 FEW015 BKN070 19/17 Q1010 NOSIG RMK 1CU015 7AC070 A2984
RJTT 241130Z 20014KT 9999 -SHRA FEW015 SCT025 BKN070 19/17 Q1010 NOSIG RMK 1CU015 3CU025 7AC070 A2985
RJTT 241100Z 20013KT 9999 -SHRA FEW020 BKN050 BKN100 19/16 Q1010 NOSIG RMK 1CU020 6CU050 7AC100 A2985
RJTT 241030Z 19010KT 170V240 9999 -SHRA FEW020 BKN050 BKN100 20/15 Q1010 NOSIG RMK 1CU020 6SC050 7AC100 A2984
RJTT 241000Z 22015KT 9999 FEW020 SCT050 BKN100 20/14 Q1010 NOSIG RMK 1CU020 4SC050 7AC100 A2984
RJTT 240930Z 22016KT 9999 FEW020 SCT025 BKN070 20/14 Q1010 NOSIG RMK 1CU020 3CU025 7AC070 A2983
RJTT 240900Z 21013KT 9999 FEW015 SCT025 BKN070 20/15 Q1010 NOSIG RMK 1CU015 4CU025 7AC070 A2983
RJTT 240847Z 21015G25KT 170V230 9999 -SHRA FEW015 SCT025 BKN070 21/15 Q1010 RMK 1CU015 3CU025 7AC070 A2982
RJTT 240830Z 21018KT 9999 -SHRA FEW015 SCT025 BKN100 20/15 Q1010 NOSIG RMK 1CU015 3CU025 7AC100 A2982
RJTT 240817Z 20018G28KT 9999 -SHRA FEW015 SCT025 BKN100 21/15 Q1009 RMK 1CU015 3CU025 7AC100 A2982
RJTT 240800Z 20017KT 9999 -SHRA FEW015 SCT025 BKN100 20/15 Q1009 NOSIG RMK 1CU015 4CU025 7AC100 A2982
RJTT 240730Z 20015KT 9999 -RA FEW020 SCT100 OVC120 20/15 Q1010 NOSIG RMK 1CU020 3AC100 8AS120 A2983
RJTT 240700Z 19017KT 9999 -RA FEW020 SCT070 OVC120 20/16 Q1010 NOSIG RMK 1CU020 3AC070 8AS120 A2984
RJTT 240630Z 20016KT 9999 -RA FEW020 SCT050 BKN120 21/15 Q1010 NOSIG RMK 1CU020 3SC050 7AC120 A2985
RJTT 240600Z 21016KT 9999 VCSH FEW020 SCT050 BKN120 21/15 Q1011 NOSIG RMK 1CU020 3SC050 7AC120 A2986
RJTT 240530Z 20015KT 9999 -SHRA FEW020 SCT030 BKN100 21/15 Q1011 NOSIG RMK 1CU020 4CU030 7AC100 A2987
RJTT 240500Z 19015KT 9999 VCSH FEW020 BKN110 21/16 Q1012 NOSIG RMK 1CU020 7AC110 A2989 MOD TURB OBS AT 0448Z AROUND STONE BTN 12000FT AND 8000FT BY B77W
RJTT 240430Z 19018KT 9999 FEW020 SCT030 BKN130 21/15 Q1012 NOSIG RMK 1CU020 3CU030 6AC130 A2989
RJTT 240400Z 19014G24KT 9999 FEW020 SCT030 BKN130 22/16 Q1012 NOSIG RMK 1CU020 3CU030 6AC130 A2991
RJTT 240330Z 18014KT 9999 FEW020 SCT030 BKN080 21/16 Q1013 NOSIG RMK 1CU020 4SC030 7AC080 A2992
RJTT 240300Z 18018KT 9999 FEW020 SCT030 BKN140 21/16 Q1013 TEMPO 20018G28KT RMK 1CU020 3CU030 5AC140 A2993
RJTT 240247Z 18016G26KT 9999 FEW020 SCT030 BKN140 21/16 Q1013 RMK 1CU020 3CU030 5AC140 A2994
RJTT 240230Z 19016KT 9999 FEW020 SCT060 BKN140 22/16 Q1014 NOSIG RMK 1CU020 3SC060 5AC140 A2995
RJTT 240216Z 18015G25KT 9999 FEW020 BKN140 BKN/// 22/16 Q1014 RMK 1CU020 5AC140 A2995
RJTT 240200Z 18014KT 9999 FEW020 BKN140 BKN/// 21/16 Q1014 NOSIG RMK 1CU020 5AC140 A2996
RJTT 240130Z 18011KT 9999 FEW020 BKN140 BKN/// 21/16 Q1015 NOSIG
RJTT 240100Z 17007KT 9999 FEW020 BKN140 BKN/// 20/16 Q1015 NOSIG RMK 1CU020 5AC140 A2999
RJTT 240030Z 18010KT 9999 FEW015 BKN140 BKN/// 20/16 Q1016 NOSIG
RJTT 240000Z 19010KT 8000 FEW015 BKN160 20/16 Q1016 NOSIG RMK 1CU015 6AC160 A3002
RJTT 232330Z 12007KT 090V170 7000 FEW010 SCT035 BKN070 18/16 Q1016 BECMG 18010KT
RJTT 232300Z 10004KT 6000 FEW010 SCT035 BKN070 18/16 Q1017 NOSIG RMK 1CU010 3SC035 6AC070 A3003
RJTT 232230Z 12007KT 7000 FEW007 SCT010 BKN035 17/16 Q1017 TEMPO FEW008 BKN012
RJTT 232200Z 12006KT 7000 FEW010 BKN015 BKN035 16/16 Q1017 NOSIG RMK 2CU010 5SC015 7SC035 A3004
RJTT 232130Z 12005KT 7000 FEW010 BKN015 16/16 Q1017 NOSIG RMK 2CU010 7SC015 A3004
RJTT 232100Z 11007KT 7000 BR SCT010 BKN015 16/15 Q1017 NOSIG RMK 3CU010 7SC015 A3004 BR N-NE
RJTT 232030Z 12003KT 100V170 8000 FEW010 BKN015 16/15 Q1017 NOSIG RMK 2CU010 7SC015 A3005
RJTT 232000Z 13006KT 8000 -RA FEW010 BKN015 16/15 Q1017 NOSIG RMK 2CU010 7SC015 A3005
RJTT 231930Z 13006KT 9999 FEW010 BKN015 BKN060 16/15 Q1017 NOSIG RMK 1CU010 6SC015 7SC060 A3005
RJTT 231900Z 14005KT 9999 FEW010 BKN015 BKN060 15/15 Q1017 NOSIG RMK 1CU010 6SC015 7SC060 A3006
RJTT 231830Z 14006KT 9999 FEW010 BKN020 15/14 Q1018 NOSIG RMK 1CU010 7SC020 A3006
RJTT 231800Z 14007KT 9999 FEW010 BKN020 16/15 Q1018 NOSIG RMK 1CU010 7SC020 A3007
RJTT 231730Z 13006KT 9999 FEW010 BKN020 16/15 Q1018 NOSIG RMK 1CU010 6SC020 A3008
RJTT 231700Z 14007KT 9999 FEW008 BKN020 BKN060 15/14 Q1018 NOSIG RMK 1ST008 5SC020 6SC060 A3008
RJTT 231630Z 12007KT 9999 FEW007 SCT010 BKN020 15/14 Q1019 NOSIG RMK 1ST007 3ST010 6SC020 A3009
RJTT 231615Z 12006KT 9999 FEW007 SCT010 BKN020 15/14 Q1019 RMK 1ST007 4ST010 7SC020 A3010
RJTT 231600Z 12008KT 9000 FEW007 BKN010 BKN020 15/14 Q1019 NOSIG RMK 1ST007 5ST010 7SC020 A3010
RJTT 231530Z 12008KT 9000 FEW007 BKN009 16/14 Q1019 NOSIG RMK 1ST007 6ST009 A3012
RJTT 231522Z 12009KT 9000 FEW007 BKN009 BKN020 16/14 Q1020 RMK 1ST007 5ST009 7SC020 A3012
RJTT 231500Z 10008KT 9000 FEW007 BKN010 BKN020 16/14 Q1020 NOSIG RMK 1ST007 6ST010 7SC020 A3013
RJTT 231430Z 09007KT 9000 FEW007 BKN010 16/14 Q1020 NOSIG RMK 1ST007 7ST010 A3013
RJTT 231400Z 10009KT 9000 FEW007 BKN010 15/14 Q1020 NOSIG RMK 1ST007 7ST010 A3013
RJTT 231330Z 10011KT 9999 FEW007 BKN010 15/14 Q1020 NOSIG RMK 1ST007 7ST010 A3014
RJTT 231230Z 09013KT 9999 FEW008 BKN010 16/14 Q1021 NOSIG RMK 1ST008 7ST010 A3015
RJTT 231200Z 09012KT 9999 -RA FEW008 BKN010 16/14 Q1021 NOSIG RMK 1ST008 7ST010 A3016
RJTT 231130Z 08012KT 9999 -RA FEW008 BKN010 15/14 Q1021 NOSIG RMK 1ST008 7ST010 A3017
RJTT 231100Z 08013KT 9999 -RA FEW008 BKN012 16/14 Q1021 NOSIG RMK 1ST008 7SC012 A3016
RJTT 231030Z 08014KT 9999 -RA FEW010 BKN013 16/14 Q1021 NOSIG RMK 1CU010 7SC013 A3016
RJTT 231000Z 08013KT 9999 -RA FEW010 BKN015 16/14 Q1020 TEMPO FEW008 BKN012 RMK 1CU010 7SC015 A3014
RJTT 230930Z 08014KT 9999 -RA FEW010 BKN015 16/14 Q1020 TEMPO FEW008 BKN012
RJTT 230900Z 09013KT 9000 -RA FEW010 BKN015 16/14 Q1020 TEMPO FEW008 BKN012 RMK 1CU010 7SC015 A3013
RJTT 230830Z 09013KT 9999 -RA FEW015 BKN020 16/14 Q1020 TEMPO FEW008 BKN012
RJTT 230800Z 09014KT 9999 -RA FEW015 BKN020 16/14 Q1020 NOSIG RMK 1CU015 7SC020 A3013
RJTT 230730Z 08013KT 9999 FEW015 BKN020 17/14 Q1020 NOSIG RMK 1CU015 7SC020 A3012
RJTT 230700Z 09010KT 9999 FEW015 BKN020 17/13 Q1020 NOSIG RMK 1CU015 7SC020 A3012
RJTT 230630Z 11009KT 9999 FEW015 BKN020 BKN030 17/14 Q1020 NOSIG RMK 1CU015 6SC020 7SC030 A3013
RJTT 230600Z 10010KT 9999 FEW015 BKN025 BKN035 17/14 Q1020 NOSIG RMK 1CU015 6SC025 7SC035 A3012
RJTT 230530Z 10010KT 9999 FEW015 BKN025 BKN035 17/14 Q1020 NOSIG RMK 1CU015 6SC025 7SC035 A3012
RJTT 230500Z 08010KT 9999 FEW015 BKN025 17/14 Q1020 NOSIG RMK 1CU015 6SC025 A3013
RJTT 230430Z 08010KT 9999 FEW010 BKN025 17/13 Q1020 NOSIG RMK 1CU010 6SC025 A3014
RJTT 230400Z 08011KT 9999 FEW010 BKN025 17/13 Q1020 NOSIG RMK 1CU010 7SC025 A3015
RJTT 230330Z 08011KT 9999 FEW015 BKN025 17/13 Q1021 NOSIG RMK 1CU015 7SC025 A3016
RJTT 230300Z 07012KT 9999 FEW010 BKN025 16/13 Q1021 NOSIG RMK 1CU010 7SC025 A3016
RJTT 230230Z 07014KT 9000 FEW010 SCT015 BKN025 17/13 Q1021 NOSIG RMK 1CU010 3SC015 6SC025 A3017
RJTT 230200Z 07014KT 8000 FEW010 SCT015 BKN030 16/14 Q1021 NOSIG RMK 1CU010 3SC015 6SC030 A3017
RJTT 230130Z 06013KT 8000 FEW010 SCT025 BKN030 17/14 Q1021 BECMG 08010KT RMK 1CU010 3SC025 6SC030 A3018
RJTT 230100Z 05013KT 8000 FEW010 SCT025 BKN030 17/14 Q1022 NOSIG RMK 1CU010 3SC025 6SC030 A3018
RJTT 230030Z 06013KT 7000 FEW020 SCT025 BKN030 17/14 Q1022 NOSIG RMK 1CU020 3SC025 6SC030 A3018
RJTT 230000Z 06012KT 7000 FEW020 SCT025 BKN030 17/14 Q1021 NOSIG RMK 1CU020 3SC025 6SC030 A3018
RJTT 222330Z 05012KT 7000 FEW020 BKN030 17/14 Q1021 NOSIG RMK 1CU020 7SC030 A3017
RJTT 222300Z 06013KT 7000 FEW015 BKN030 17/15 Q1021 NOSIG RMK 1CU015 7SC030 A3016
RJTT 222230Z 05012KT 7000 FEW012 BKN025 16/15 Q1021 NOSIG RMK 1CU012 7SC025 A3016
RJTT 222200Z 05013KT 8000 FEW015 BKN025 16/15 Q1020 NOSIG RMK 1CU015 7SC025 A3014
RJTT 222130Z 05014KT 8000 FEW012 BKN020 16/14 Q1020 NOSIG RMK 1SC012 7SC020 A3014
RJTT 222100Z 05014KT 7000 FEW012 BKN020 16/15 Q1020 TEMPO 4000 BR FEW005 BKN008 RMK 2SC012 7SC020 A3014
RJTT 222030Z 05014KT 8000 FEW012 BKN020 16/14 Q1020 TEMPO 4000 BR FEW005 BKN008
RJTT 222018Z 06014KT 8000 FEW013 BKN020 16/14 Q1019 RMK 1SC013 6SC020 A3012
RJTT 222000Z 05015KT 8000 FEW010 BKN013 BKN020 16/14 Q1019 TEMPO 4000 BR FEW005 BKN008 RMK 1ST010 5SC013 7SC020 A3011
RJTT 221930Z 06015KT 8000 FEW009 BKN011 16/15 Q1019 TEMPO 4000 BR FEW005 BKN008 BECMG 04010KT RMK 1ST009 6ST011 A3010
RJTT 221900Z 07015KT 6000 FEW008 BKN010 16/15 Q1018 TEMPO 4000 BR FEW005 BKN008 RMK 1ST008 6ST010 A3009
RJTT 221840Z 07016KT 6000 FEW004 BKN010 16/15 Q1018 RMK 1ST004 6ST010 A3008
RJTT 221823Z 08015KT 5000 BR FEW004 BKN008 16/16 Q1018 RMK 1ST004 6ST008 A3008
RJTT 221800Z 09015KT 3500 BR FEW004 BKN013 16/16 Q1018 TEMPO FEW005 BKN008 BECMG 04008KT RMK 1ST004 5SC013 A3008
RJTT 221730Z 08016KT 4500 BR FEW006 SCT013 16/16 Q1018 BECMG 04008KT TEMPO FEW005 BKN008
RJTT 221721Z 07016KT 5000 BR FEW007 BKN013 17/16 Q1018 RMK 1ST007 6SC013 A3006
RJTT 221700Z 10012KT 9999 FEW010 18/15 Q1017 BECMG 04008KT
RJTT 221630Z 13010KT CAVOK 17/16 Q1017 BECMG 04006KT RMK A3005
RJTT 221600Z 14007KT CAVOK 17/15 Q1017 BECMG 04006KT RMK A3005
RJTT 221530Z 13005KT CAVOK 17/15 Q1017 BECMG 04006KT
RJTT 221500Z 19005KT CAVOK 18/13 Q1017 NOSIG RMK A3004
RJTT 221430Z 20007KT CAVOK 19/13 Q1017 NOSIG RMK A3004
RJTT 221400Z 20008KT CAVOK 19/13 Q1017 NOSIG RMK A3003
RJTT 221330Z 20009KT CAVOK 19/13 Q1017 NOSIG RMK A3003
RJTT 221300Z 19008KT CAVOK 19/14 Q1016 NOSIG RMK A3003
RJTT 221230Z 19012KT CAVOK 19/14 Q1016 NOSIG RMK A3002